Time;durP1;ratioP1;P1;durP2;ratioP2;P2;SDS_P1;SDS_P2;PMS_P1;PMS_P2;Temp;Humidity;BMP_temperature;BMP_pressure;BME280_temperature;BME280_humidity;BME280_pressure;Samples;Min_cycle;Max_cycle;Signal;HPM_P1;HPM_P2
2023/10/12 00:01:59;;;;;;;31.80;17.13;;;;;;;16.38;100.00;100954.16;5034960;28;20029;-49
2023/10/12 00:04:35;;;;;;;34.67;16.80;;;;;;;16.35;100.00;100967.63;5034779;28;20461;-47
2023/10/12 00:07:08;;;;;;;22.20;14.52;;;;;;;16.51;100.00;100991.56;5034495;28;20033;-50
2023/10/12 00:09:33;;;;;;;24.38;14.63;;;;;;;16.21;100.00;100949.78;5034560;28;20084;-49
2023/10/12 00:12:07;;;;;;;30.65;15.07;;;;;;;16.61;100.00;101030.88;5031644;28;20071;-51
2023/10/12 00:14:33;;;;;;;26.60;13.77;;;;;;;16.50;100.00;101013.75;5034752;28;20037;-47
2023/10/12 00:16:59;;;;;;;23.08;11.27;;;;;;;16.55;100.00;101039.16;5049656;28;20025;-49
2023/10/12 00:19:25;;;;;;;28.60;10.20;;;;;;;16.45;100.00;101029.09;5034360;28;20037;-50
2023/10/12 00:21:56;;;;;;;23.95;10.93;;;;;;;16.34;100.00;101025.19;5034081;28;20039;-49
2023/10/12 00:24:22;;;;;;;24.73;8.75;;;;;;;15.95;100.00;100979.50;5034205;28;20473;-50
2023/10/12 00:26:47;;;;;;;20.30;8.85;;;;;;;16.28;100.00;101046.81;5034076;28;20064;-48
2023/10/12 00:29:12;;;;;;;19.70;8.10;;;;;;;16.26;100.00;101050.44;5032410;28;20045;-52
2023/10/12 00:31:41;;;;;;;19.30;9.60;;;;;;;16.11;100.00;101043.31;5032861;28;20040;-52
2023/10/12 00:34:08;;;;;;;16.80;7.95;;;;;;;16.09;100.00;101056.66;5034268;28;20116;-45
2023/10/12 00:36:37;;;;;;;21.92;9.02;;;;;;;15.99;100.00;101041.28;5034105;28;20400;-46
2023/10/12 00:39:09;;;;;;;23.73;8.02;;;;;;;15.95;100.00;101045.88;5034161;28;20045;-46
2023/10/12 00:41:36;;;;;;;23.10;8.38;;;;;;;15.54;100.00;100988.72;5034003;28;20042;-46
2023/10/12 00:51:39;;;;;;;18.00;7.70;;;;;;;15.91;100.00;101059.38;5047193;28;20133;-47
2023/10/12 00:54:05;;;;;;;21.90;8.65;;;;;;;15.51;100.00;100997.72;5033893;28;20033;-49
2023/10/12 00:56:31;;;;;;;23.42;8.88;;;;;;;15.45;100.00;100999.78;5033700;28;20064;-49
2023/10/12 00:58:57;;;;;;;20.17;8.82;;;;;;;15.76;100.00;101050.44;5033293;28;20516;-50
2023/10/12 01:01:23;;;;;;;18.25;7.75;;;;;;;15.61;100.00;101006.06;5031696;28;20095;-50
2023/10/12 01:03:49;;;;;;;21.23;7.90;;;;;;;15.44;100.00;100979.50;5033773;28;20048;-52
2023/10/12 01:06:20;;;;;;;12.98;6.82;;;;;;;15.50;100.00;101013.72;5033659;28;20033;-47
2023/10/12 01:08:47;;;;;;;14.65;5.30;;;;;;;15.73;100.00;101062.03;5033414;28;20022;-50
2023/10/12 01:16:42;;;;;;;12.07;5.43;;;;;;;15.67;100.00;101034.97;5045426;28;20056;-46
2023/10/12 01:19:07;;;;;;;10.23;6.10;;;;;;;15.18;100.00;100955.13;5033542;28;20639;-46
2023/10/12 01:21:37;;;;;;;10.48;5.80;;;;;;;15.63;100.00;101028.06;5033212;28;20104;-50
2023/10/12 01:24:05;;;;;;;11.73;5.60;;;;;;;15.30;100.00;100966.91;5032549;28;20131;-47
2023/10/12 01:26:33;;;;;;;14.55;6.97;;;;;;;15.39;100.00;100979.72;5032741;28;20121;-49
2023/10/12 01:29:00;;;;;;;10.93;6.30;;;;;;;15.65;100.00;101021.75;5048296;28;20447;-50
2023/10/12 01:31:29;;;;;;;13.43;6.13;;;;;;;15.54;100.00;101005.50;5033334;28;20034;-46
2023/10/12 01:33:55;;;;;;;22.55;7.07;;;;;;;15.67;100.00;101025.19;5032914;28;20382;-51
2023/10/12 01:36:27;;;;;;;17.10;6.40;;;;;;;15.40;100.00;100976.13;5031677;28;20079;-52
2023/10/12 01:39:10;;;;;;;16.45;6.70;;;;;;;15.69;100.00;101020.66;5033086;28;20037;-51
2023/10/12 01:41:35;;;;;;;12.77;6.63;;;;;;;15.67;100.00;101014.56;5032271;28;20064;-47
2023/10/12 01:44:01;;;;;;;19.48;6.93;;;;;;;15.64;100.00;101011.22;5032993;28;20034;-50
2023/10/12 01:46:26;;;;;;;13.45;6.20;;;;;;;15.33;100.00;100964.09;5033003;28;20041;-50
2023/10/12 01:48:52;;;;;;;9.60;5.35;;;;;;;15.33;100.00;100965.91;5032651;28;20037;-51
2023/10/12 01:51:19;;;;;;;14.45;5.40;;;;;;;15.71;100.00;101033.84;5029604;28;20041;-51
2023/10/12 01:53:44;;;;;;;16.75;6.00;;;;;;;15.37;100.00;100955.06;5032581;28;20454;-54
2023/10/12 01:56:10;;;;;;;16.02;6.30;;;;;;;15.37;100.00;100944.47;5032814;28;20083;-48
2023/10/12 01:58:37;;;;;;;10.98;5.70;;;;;;;15.69;100.00;101004.75;5032841;28;20029;-49
2023/10/12 02:01:05;;;;;;;10.32;6.13;;;;;;;15.34;100.00;100946.41;5031199;28;20030;-49
2023/10/12 02:03:31;;;;;;;11.07;6.03;;;;;;;15.35;100.00;100949.00;5031565;28;20381;-48
2023/10/12 02:06:05;;;;;;;14.60;6.43;;;;;;;15.30;100.00;100936.88;5030940;28;20041;-52
2023/10/12 02:08:32;;;;;;;13.50;6.30;;;;;;;15.44;100.00;100969.72;5047759;28;20495;-49
2023/10/12 02:11:06;;;;;;;16.77;6.78;;;;;;;14.91;100.00;100858.41;5032693;28;20116;-50
2023/10/12 02:13:34;;;;;;;10.40;6.68;;;;;;;15.74;100.00;101002.72;5063506;28;20175;-50
2023/10/12 02:16:01;;;;;;;13.55;6.50;;;;;;;15.39;100.00;100952.31;5047676;28;20064;-53
2023/10/12 02:18:27;;;;;;;12.50;6.30;;;;;;;15.46;100.00;100949.31;5032371;28;20044;-50
2023/10/12 02:21:11;;;;;;;11.80;6.40;;;;;;;15.40;100.00;100944.31;5032429;28;20041;-48
2023/10/12 02:23:39;;;;;;;12.63;6.18;;;;;;;15.82;100.00;101009.44;5043820;28;20047;-50
2023/10/12 02:28:53;;;;;;;10.82;4.30;;;;;;;15.63;100.00;100962.59;5045659;28;20509;-51
2023/10/12 02:31:24;;;;;;;9.65;4.90;;;;;;;15.77;100.00;100999.91;5032048;28;20045;-52
2023/10/12 02:33:49;;;;;;;11.98;5.07;;;;;;;15.71;100.00;100989.59;5031782;28;20029;-49
2023/10/12 02:36:18;;;;;;;10.95;5.15;;;;;;;15.73;100.00;100985.06;5032236;28;20113;-49
2023/10/12 02:38:43;;;;;;;10.60;4.97;;;;;;;15.73;100.00;100994.84;5030492;28;20065;-53
2023/10/12 02:41:12;;;;;;;9.27;4.78;;;;;;;15.38;100.00;100934.72;5032143;28;20591;-52
2023/10/12 02:43:40;;;;;;;12.05;5.38;;;;;;;15.54;100.00;100956.91;5032048;28;20053;-48
2023/10/12 02:46:06;;;;;;;12.18;4.85;;;;;;;15.78;100.00;101000.78;5032124;28;20049;-49
2023/10/12 02:48:36;;;;;;;10.95;5.18;;;;;;;15.42;100.00;100950.38;5032075;28;20025;-50
2023/10/12 02:51:06;;;;;;;11.82;5.30;;;;;;;15.70;100.00;100998.47;5030300;28;20205;-50
2023/10/12 02:53:34;;;;;;;9.52;5.43;;;;;;;15.73;100.00;101008.94;5032036;28;20116;-52
2023/10/12 02:56:01;;;;;;;11.50;5.45;;;;;;;15.51;100.00;100976.47;5031918;28;20025;-49
2023/10/12 02:58:27;;;;;;;11.23;5.03;;;;;;;15.72;100.00;101001.94;5032265;28;20423;-50
2023/10/12 03:00:56;;;;;;;9.38;5.03;;;;;;;15.68;100.00;101003.03;5032074;28;20042;-52
2023/10/12 03:06:06;;;;;;;9.82;4.50;;;;;;;15.50;100.00;100950.88;5046152;28;20037;-46
2023/10/12 03:08:33;;;;;;;12.95;4.65;;;;;;;15.35;100.00;100937.53;5030390;28;20046;-47
2023/10/12 03:13:34;;;;;;;9.65;4.95;;;;;;;15.79;100.00;101012.25;5031654;28;20048;-47
2023/10/12 03:16:20;;;;;;;8.20;4.22;;;;;;;15.69;100.00;101003.88;5031887;28;20025;-52
2023/10/12 03:18:46;;;;;;;7.90;4.13;;;;;;;15.79;100.00;101013.09;5031650;28;20065;-49
2023/10/12 03:21:11;;;;;;;10.73;4.20;;;;;;;15.31;100.00;100928.00;5031649;28;20504;-49
2023/10/12 03:23:38;;;;;;;9.77;3.55;;;;;;;15.72;100.00;101009.91;5031797;28;20374;-48
2023/10/12 03:26:16;;;;;;;8.73;3.85;;;;;;;15.55;100.00;100982.50;5029858;28;20421;-48
2023/10/12 03:28:46;;;;;;;6.07;4.03;;;;;;;15.33;100.00;100942.03;5045324;28;20032;-50
2023/10/12 03:31:23;;;;;;;5.85;4.18;;;;;;;15.67;100.00;101013.72;5030961;28;20499;-51
2023/10/12 03:33:55;;;;;;;5.55;3.28;;;;;;;15.68;100.00;101026.03;5030259;28;20148;-51
2023/10/12 03:36:25;;;;;;;5.63;3.33;;;;;;;15.70;100.00;101042.78;5046124;28;20120;-54
2023/10/12 03:44:21;;;;;;;4.38;3.35;;;;;;;15.52;100.00;100995.91;5031717;28;20080;-48
2023/10/12 03:46:56;;;;;;;;;;;;;;;15.67;100.00;101040.25;5049390;28;20033;-49
2023/10/12 03:49:32;;;;;;;12.73;7.70;;;;;;;15.02;100.00;100983.31;5034948;28;19921;-50
2023/10/12 03:52:06;;;;;;;13.32;8.60;;;;;;;15.32;100.00;101054.38;5035081;28;20097;-51
2023/10/12 03:54:32;;;;;;;13.70;8.60;;;;;;;15.19;100.00;101049.66;5067033;28;20083;-50
2023/10/12 03:57:19;;;;;;;14.65;9.38;;;;;;;15.14;100.00;101040.19;5034949;28;20045;-48
2023/10/12 03:59:52;;;;;;;17.02;9.68;;;;;;;15.10;100.00;101039.47;5033194;28;20366;-53
2023/10/12 04:02:17;;;;;;;14.70;9.95;;;;;;;14.92;100.00;101035.03;5034906;28;20057;-47
2023/10/12 04:05:15;;;;;;;18.70;9.90;;;;;;;14.96;100.00;101035.78;5034676;28;20033;-48
2023/10/12 04:08:00;;;;;;;17.95;10.75;;;;;;;14.92;100.00;101052.72;5032161;28;20037;-50
2023/10/12 04:19:02;;;;;;;18.55;11.18;;;;;;;14.94;100.00;101043.81;5034571;28;20046;-47
2023/10/12 04:21:33;;;;;;;21.67;11.90;;;;;;;14.95;100.00;101049.94;5034450;28;20052;-51
2023/10/12 04:26:39;;;;;;;23.05;12.30;;;;;;;14.89;100.00;101067.00;5035577;28;19917;-49
2023/10/12 04:29:13;;;;;;;18.55;10.80;;;;;;;14.46;100.00;100998.38;5033994;28;20049;-49
2023/10/12 04:34:11;;;;;;;17.15;10.07;;;;;;;14.78;100.00;101073.72;4993573;28;20481;-49
2023/10/12 04:41:38;;;;;;;16.58;10.45;;;;;;;14.25;100.00;101004.59;4994828;28;20376;-47
2023/10/12 04:44:36;;;;;;;15.52;9.65;;;;;;;14.61;100.00;101080.66;4994590;28;20034;-52
2023/10/12 04:47:04;;;;;;;16.80;10.32;;;;;;;14.56;100.00;101095.88;5019043;28;20574;-48
2023/10/12 04:52:15;;;;;;;17.48;9.05;;;;;;;14.07;100.00;101024.81;5033903;28;20033;-51
2023/10/12 04:57:26;;;;;;;15.85;9.20;;;;;;;13.99;100.00;101032.22;5033254;28;20132;-49
2023/10/12 05:00:01;;;;;;;19.70;10.23;;;;;;;14.35;100.00;101094.22;5032806;28;20037;-50
2023/10/12 05:02:41;;;;;;;18.05;9.15;;;;;;;13.96;100.00;101019.13;5021992;28;20716;-51
2023/10/12 05:07:53;;;;;;;18.55;8.65;;;;;;;14.19;100.00;101073.69;5011809;28;20137;-49
2023/10/12 05:10:26;;;;;;;15.32;8.52;;;;;;;14.16;100.00;101082.63;5012143;28;20129;-48
2023/10/12 05:12:52;;;;;;;13.85;7.25;;;;;;;13.62;100.00;100987.09;5013806;28;20125;-52
2023/10/12 05:15:20;;;;;;;7.35;4.47;;;;;;;14.26;100.00;101121.03;5012827;28;20045;-50
2023/10/12 05:17:46;;;;;;;4.15;3.00;;;;;;;13.86;100.00;101070.72;5009798;28;20388;-50
2023/10/12 05:20:11;;;;;;;4.18;2.60;;;;;;;13.84;100.00;101070.78;5021813;28;20049;-49
2023/10/12 05:22:36;;;;;;;3.25;2.00;;;;;;;14.02;100.00;101122.94;5013382;28;20045;-52
2023/10/12 05:25:04;;;;;;;2.85;1.58;;;;;;;13.99;100.00;101125.72;5013099;28;20037;-50
2023/10/12 05:27:38;;;;;;;2.88;1.83;;;;;;;13.41;100.00;101037.31;5013559;28;20125;-50
2023/10/12 05:30:06;;;;;;;4.22;2.00;;;;;;;13.66;100.00;101087.41;5026453;28;20030;-48
2023/10/12 05:32:37;;;;;;;1.65;1.30;;;;;;;13.87;100.00;101143.88;5013679;28;20461;-49
2023/10/12 05:35:06;;;;;;;1.55;1.40;;;;;;;13.85;100.00;101133.38;5019146;28;20493;-50
2023/10/12 05:37:38;;;;;;;2.90;1.55;;;;;;;13.84;100.00;101141.34;5012064;28;20121;-50
2023/10/12 05:40:10;;;;;;;4.80;2.58;;;;;;;13.40;100.00;101067.31;5011546;28;20169;-51
2023/10/12 05:42:39;;;;;;;5.88;2.60;;;;;;;13.58;100.00;101108.03;5013285;28;20034;-53
2023/10/12 05:45:30;;;;;;;6.78;3.30;;;;;;;13.37;100.00;101072.72;5013423;28;20129;-54
2023/10/12 05:47:56;;;;;;;;;;;;;;;13.84;100.00;101139.59;5010769;28;20046;-49
2023/10/12 05:50:24;;;;;;;8.87;4.37;;;;;;;13.40;100.00;101064.69;5014568;28;19928;-48
2023/10/12 05:52:59;;;;;;;11.35;5.28;;;;;;;13.78;100.00;101142.47;5012911;28;20033;-49
2023/10/12 05:55:25;;;;;;;8.23;4.80;;;;;;;13.80;100.00;101148.59;5011490;28;20051;-53
2023/10/12 05:57:50;;;;;;;10.57;5.50;;;;;;;13.81;100.00;101152.06;5013152;28;20129;-49
2023/10/12 06:00:41;;;;;;;9.68;6.40;;;;;;;13.84;100.00;101165.16;5013080;28;20461;-50
2023/10/12 06:03:07;;;;;;;9.02;6.18;;;;;;;13.35;100.00;101079.00;5012638;28;20050;-50
2023/10/12 06:05:33;;;;;;;10.13;6.72;;;;;;;13.77;100.00;101151.34;5012458;28;20038;-49
2023/10/12 06:08:03;;;;;;;9.88;5.95;;;;;;;13.65;100.00;101130.69;5018802;28;20413;-52
2023/10/12 06:10:28;;;;;;;9.18;6.10;;;;;;;13.76;100.00;101160.22;5036811;28;20115;-50
2023/10/12 06:12:53;;;;;;;7.43;5.18;;;;;;;13.27;100.00;101089.91;5012699;28;20073;-50
2023/10/12 06:15:24;;;;;;;10.75;5.72;;;;;;;13.31;100.00;101093.28;5011396;28;20041;-49
2023/10/12 06:17:55;;;;;;;9.88;5.10;;;;;;;13.74;100.00;101177.06;5012693;28;20045;-53
2023/10/12 06:20:40;;;;;;;7.70;4.23;;;;;;;13.69;100.00;101171.94;5012366;28;20088;-48
2023/10/12 06:23:09;;;;;;;7.68;4.22;;;;;;;13.70;100.00;101175.44;5012414;28;20280;-49
2023/10/12 06:25:38;;;;;;;9.70;4.88;;;;;;;13.67;100.00;101189.66;5025459;28;20130;-52
2023/10/12 06:28:14;;;;;;;11.55;4.80;;;;;;;13.65;100.00;101175.66;5012497;28;20095;-52
2023/10/12 06:30:45;;;;;;;11.55;5.07;;;;;;;13.43;100.00;101140.38;5017309;28;20045;-51
2023/10/12 06:33:15;;;;;;;11.10;5.75;;;;;;;13.08;100.00;101077.44;5012131;28;20038;-52
2023/10/12 06:35:58;;;;;;;12.13;5.63;;;;;;;13.16;100.00;101102.69;5026969;28;20021;-51
2023/10/12 06:46:17;;;;;;;14.82;7.10;;;;;;;13.69;100.00;101192.28;5031855;28;20049;-49
2023/10/12 06:48:47;;;;;;;10.07;6.50;;;;;;;13.66;100.00;101197.69;5020435;28;20038;-47
2023/10/12 06:51:16;;;;;;;14.50;6.53;;;;;;;13.62;100.00;101188.13;5024371;28;20029;-48
2023/10/12 06:53:44;;;;;;;11.20;7.22;;;;;;;13.70;100.00;101205.41;5030156;28;20501;-48
2023/10/12 07:04:27;;;;;;;16.98;7.88;;;;;;;13.36;100.00;101142.41;4990727;28;20478;-51
2023/10/12 07:12:02;;;;;;;14.60;6.55;;;;;;;13.35;100.00;101135.41;5005116;28;20145;-51
2023/10/12 07:14:33;;;;;;;10.07;5.90;;;;;;;13.79;100.00;101212.13;4990620;28;20113;-48
2023/10/12 07:17:01;;;;;;;12.00;6.82;;;;;;;13.76;100.00;101212.25;4990918;28;20038;-47
2023/10/12 07:19:27;;;;;;;10.60;5.80;;;;;;;13.72;100.00;101206.22;4990392;28;20437;-50
2023/10/12 07:21:55;;;;;;;9.88;6.03;;;;;;;13.38;100.00;101155.56;5009185;28;20026;-48
2023/10/12 07:24:22;;;;;;;9.77;6.07;;;;;;;13.75;100.00;101227.25;4994549;28;20057;-48
2023/10/12 07:26:48;;;;;;;8.10;4.65;;;;;;;13.38;100.00;101156.44;4993731;28;20054;-49
2023/10/12 07:29:19;;;;;;;6.43;3.50;;;;;;;13.77;100.00;101230.72;4994402;28;20038;-47
2023/10/12 07:31:48;;;;;;;9.80;3.65;;;;;;;13.73;100.00;101249.41;4994055;28;20278;-47
2023/10/12 07:34:18;;;;;;;5.72;3.50;;;;;;;13.78;100.00;101242.16;4994418;28;20038;-49
2023/10/12 07:36:53;;;;;;;5.90;3.28;;;;;;;13.78;100.00;101239.50;4994548;28;20049;-46
2023/10/12 07:42:02;;;;;;;5.45;3.55;;;;;;;13.76;100.00;101244.00;4994341;28;20112;-47
2023/10/12 07:44:36;;;;;;;6.50;3.50;;;;;;;13.76;100.00;101250.16;4992311;28;20453;-50
2023/10/12 07:47:03;;;;;;;8.98;3.72;;;;;;;13.75;100.00;101242.25;4993883;28;20038;-48
2023/10/12 07:51:59;;;;;;;9.50;4.95;;;;;;;13.71;100.00;101238.91;4993843;28;20042;-52
2023/10/12 07:57:22;;;;;;;9.60;5.40;;;;;;;13.29;100.00;101177.94;4981659;28;20038;-47
2023/10/12 07:59:59;;;;;;;14.18;6.47;;;;;;;13.70;100.00;101241.59;4992830;28;20112;-49
2023/10/12 08:05:18;;;;;;;13.38;6.38;;;;;;;13.35;100.00;101151.25;4993694;28;20089;-53
2023/10/12 08:08:45;;;;;;;13.60;7.28;;;;;;;13.80;100.00;101227.09;4993652;28;20037;-52
2023/10/12 08:15:56;;;;;;;15.18;8.18;;;;;;;14.02;100.00;101250.00;4993229;28;20105;-48
2023/10/12 08:32:10;;;;;;;18.20;8.18;;;;;;;13.93;100.00;101201.84;4993053;28;20034;-50
2023/10/12 08:39:38;;;;;;;12.95;6.90;;;;;;;14.33;100.00;101267.34;4992017;28;20405;-49
2023/10/12 08:44:46;;;;;;;11.10;5.82;;;;;;;14.33;100.00;101272.63;4991899;28;20046;-53
2023/10/12 08:47:24;;;;;;;10.43;5.75;;;;;;;14.04;100.00;101221.66;5007975;28;20057;-48
2023/10/12 08:49:53;;;;;;;10.05;6.20;;;;;;;14.36;100.00;101261.91;4993285;28;20618;-53
2023/10/12 08:52:29;;;;;;;11.82;6.00;;;;;;;14.32;100.00;101270.84;4992801;28;20484;-49
2023/10/12 08:54:58;;;;;;;9.60;5.60;;;;;;;14.31;100.00;101261.19;4991692;28;20041;-52
2023/10/12 08:57:37;;;;;;;8.10;5.53;;;;;;;14.27;100.00;101251.66;4992978;28;20118;-52
2023/10/12 09:02:51;;;;;;;11.32;5.70;;;;;;;14.26;100.00;101223.44;4991161;28;20042;-48
2023/10/12 09:05:24;;;;;;;13.70;6.35;;;;;;;14.27;100.00;101219.88;4992743;28;20046;-52
2023/10/12 09:08:05;;;;;;;9.23;5.60;;;;;;;14.30;100.00;101223.25;5006753;28;20048;-52
2023/10/12 09:10:55;;;;;;;9.95;5.47;;;;;;;14.34;100.00;101230.19;4992703;28;20058;-49
2023/10/12 09:13:34;;;;;;;9.98;5.72;;;;;;;14.40;100.00;101232.56;4983665;28;20042;-51
2023/10/12 09:16:10;;;;;;;12.82;5.93;;;;;;;14.40;100.00;101210.53;4991970;28;20041;-49
2023/10/12 09:18:47;;;;;;;9.57;5.95;;;;;;;14.50;100.00;101223.31;4990974;28;20125;-52
2023/10/12 09:23:50;;;;;;;9.18;5.63;;;;;;;14.47;100.00;101193.44;4992105;28;20077;-49
2023/10/12 09:26:19;;;;;;;8.02;4.72;;;;;;;14.57;100.00;101219.47;5005833;28;20446;-49
2023/10/12 09:31:15;;;;;;;6.22;3.83;;;;;;;14.45;100.00;101185.56;4992092;28;20034;-50
2023/10/12 09:33:54;;;;;;;4.75;3.45;;;;;;;14.25;100.00;101169.63;4991925;28;20038;-51
2023/10/12 09:36:19;;;;;;;8.60;3.45;;;;;;;14.10;100.00;101143.78;4991979;28;20140;-51
2023/10/12 09:38:45;;;;;;;5.00;3.70;;;;;;;14.41;100.00;101207.81;4990622;28;20038;-47
2023/10/12 09:41:14;;;;;;;4.32;3.55;;;;;;;14.07;100.00;101147.44;4991985;28;20795;-51
2023/10/12 09:43:44;;;;;;;6.32;3.88;;;;;;;14.37;100.00;101208.00;4990513;28;20042;-49
2023/10/12 09:46:12;;;;;;;6.80;3.55;;;;;;;14.36;100.00;101201.00;4991937;28;20049;-50
2023/10/12 09:48:39;;;;;;;4.18;3.65;;;;;;;14.25;100.00;101195.22;4990116;28;20062;-54
2023/10/12 09:51:15;;;;;;;4.40;4.00;;;;;;;14.31;100.00;101206.44;4990897;28;20120;-49
2023/10/12 09:53:58;;;;;;;5.82;4.05;;;;;;;14.36;100.00;101198.34;4993173;28;20026;-48
2023/10/12 09:56:28;;;;;;;7.57;4.00;;;;;;;14.32;100.00;101172.88;4992996;28;20536;-48
2023/10/12 10:01:49;;;;;;;5.90;4.15;;;;;;;14.50;100.00;101185.38;4993065;28;20477;-49
2023/10/12 10:07:15;;;;;;;7.55;4.80;;;;;;;14.51;100.00;101165.88;4987911;28;20137;-50
2023/10/12 10:09:49;;;;;;;5.97;4.95;;;;;;;14.22;100.00;101115.94;5007530;28;20034;-49
2023/10/12 10:12:16;;;;;;;6.35;4.72;;;;;;;14.62;100.00;101166.31;4993159;28;20034;-47
2023/10/12 10:14:44;;;;;;;7.03;5.03;;;;;;;14.69;100.00;101167.75;4993093;28;20046;-51
2023/10/12 10:17:14;;;;;;;9.70;5.40;;;;;;;14.76;100.00;101165.69;4992945;28;20037;-50
2023/10/12 10:19:39;;;;;;;7.80;5.57;;;;;;;14.84;100.00;101153.81;4992740;28;20045;-48
2023/10/12 10:22:16;;;;;;;6.43;5.60;;;;;;;14.59;100.00;101102.84;4992549;28;20357;-48
2023/10/12 10:24:46;;;;;;;8.10;5.75;;;;;;;14.99;100.00;101162.88;4991483;28;20496;-48
2023/10/12 10:27:16;;;;;;;9.95;5.85;;;;;;;15.02;100.00;101149.47;4992697;28;20474;-51
2023/10/12 10:30:10;;;;;;;7.07;5.45;;;;;;;14.74;100.00;101096.84;4992611;28;20034;-56
2023/10/12 10:32:38;;;;;;;8.10;5.90;;;;;;;14.70;100.00;101078.53;5004712;28;20042;-50
2023/10/12 10:35:12;;;;;;;8.60;6.85;;;;;;;14.82;100.00;101093.88;4991490;28;20066;-48
2023/10/12 10:37:57;;;;;;;10.90;6.50;;;;;;;15.00;100.00;101122.19;4992632;28;20030;-47
2023/10/12 10:40:39;;;;;;;8.13;7.07;;;;;;;14.77;100.00;101072.84;4992847;28;20033;-51
2023/10/12 10:43:08;;;;;;;11.00;7.60;;;;;;;15.11;100.00;101136.66;4992748;28;20046;-49
2023/10/12 10:45:37;;;;;;;9.13;7.85;;;;;;;15.15;100.00;101130.28;4991074;28;20462;-55
2023/10/12 10:48:04;;;;;;;11.25;7.85;;;;;;;14.85;100.00;101084.00;4992773;28;20155;-50
2023/10/12 10:50:33;;;;;;;12.48;8.80;;;;;;;14.86;100.00;101079.53;4991735;28;20420;-49
2023/10/12 10:52:59;;;;;;;10.18;8.50;;;;;;;15.10;100.00;101134.94;4992530;28;20042;-49
2023/10/12 10:55:30;;;;;;;11.48;8.70;;;;;;;14.99;100.00;101117.81;4992143;28;20042;-56
2023/10/12 10:57:57;;;;;;;12.05;9.07;;;;;;;15.04;100.00;101137.88;4995366;28;20030;-54
2023/10/12 11:00:33;;;;;;;12.98;9.18;;;;;;;15.03;100.00;101132.66;4996354;28;20034;-54
2023/10/12 11:03:03;;;;;;;12.82;9.50;;;;;;;15.02;100.00;101139.72;4996409;28;20065;-57
2023/10/12 11:05:29;;;;;;;16.15;8.88;;;;;;;14.98;100.00;101130.19;4996282;28;20042;-50
2023/10/12 11:07:54;;;;;;;12.52;8.85;;;;;;;14.70;100.00;101095.28;4996383;28;20388;-49
2023/10/12 11:10:31;;;;;;;19.23;10.45;;;;;;;14.72;100.00;101084.59;4996581;28;20397;-51
2023/10/12 11:13:00;;;;;;;14.80;9.05;;;;;;;14.84;100.00;101092.00;4995459;28;20064;-51
2023/10/12 11:15:26;;;;;;;16.38;9.32;;;;;;;14.70;100.00;101062.63;4995413;28;20069;-54
2023/10/12 11:18:00;;;;;;;13.07;9.45;;;;;;;15.03;100.00;101125.53;4996498;28;20450;-52
2023/10/12 11:20:43;;;;;;;13.60;9.07;;;;;;;15.07;100.00;101129.78;5010585;28;20081;-49
2023/10/12 11:23:09;;;;;;;12.50;9.15;;;;;;;14.72;100.00;101058.09;4996119;28;20062;-49
2023/10/12 11:25:41;;;;;;;14.90;9.88;;;;;;;15.13;100.00;101129.50;4996039;28;20034;-52
2023/10/12 11:28:22;;;;;;;13.02;9.43;;;;;;;15.08;100.00;101099.69;4994746;28;20042;-49
2023/10/12 11:30:52;;;;;;;18.27;10.87;;;;;;;15.11;100.00;101086.28;4995829;28;20035;-55
2023/10/12 11:33:24;;;;;;;18.08;10.90;;;;;;;14.93;100.00;101052.69;4994786;28;20042;-50
2023/10/12 11:35:49;;;;;;;15.45;9.68;;;;;;;15.22;100.00;101096.38;4994506;28;20029;-49
2023/10/12 11:38:19;;;;;;;13.82;9.35;;;;;;;15.25;100.00;101092.72;4994544;28;20373;-52
2023/10/12 11:40:52;;;;;;;17.80;10.88;;;;;;;14.94;100.00;101038.50;4994205;28;20034;-50
2023/10/12 11:43:19;;;;;;;14.85;9.00;;;;;;;15.25;100.00;101096.22;4995748;28;20341;-51
2023/10/12 11:46:04;;;;;;;15.13;9.93;;;;;;;15.19;100.00;101062.03;4993480;28;20034;-53
2023/10/12 11:48:30;;;;;;;21.08;11.85;;;;;;;15.17;100.00;101040.91;4994396;28;20041;-54
2023/10/12 11:50:56;;;;;;;20.45;12.13;;;;;;;15.32;100.00;101071.16;4995649;28;20034;-58
2023/10/12 11:53:24;;;;;;;22.88;13.63;;;;;;;15.35;100.00;101073.66;4978139;28;20038;-53
2023/10/12 11:56:01;;;;;;;19.55;13.30;;;;;;;15.34;100.00;101055.16;4995490;28;20496;-50
2023/10/12 11:58:27;;;;;;;24.02;14.32;;;;;;;15.05;100.00;101012.34;4995726;28;20409;-50
2023/10/12 12:00:53;;;;;;;24.55;14.38;;;;;;;15.36;100.00;101059.44;4995420;28;20049;-58
2023/10/12 12:03:18;;;;;;;28.13;16.50;;;;;;;15.09;100.00;101021.84;4995646;28;20034;-50
2023/10/12 12:05:50;;;;;;;27.30;16.05;;;;;;;15.11;100.00;101011.19;4994053;28;20477;-49
2023/10/12 12:08:18;;;;;;;28.88;16.58;;;;;;;15.44;100.00;101077.66;4993225;28;20165;-53
2023/10/12 12:10:45;;;;;;;27.02;16.83;;;;;;;15.37;100.00;101055.88;4995275;28;20140;-57
2023/10/12 12:13:12;;;;;;;30.23;17.00;;;;;;;15.16;100.00;101023.28;4995411;28;20035;-52
2023/10/12 12:15:46;;;;;;;27.58;16.45;;;;;;;15.48;100.00;101076.59;4994156;28;20049;-53
2023/10/12 12:18:18;;;;;;;33.42;18.10;;;;;;;15.15;100.00;101032.16;4993871;28;20397;-53
2023/10/12 12:20:44;;;;;;;34.15;18.20;;;;;;;15.15;100.00;101040.13;4993626;28;20489;-51
2023/10/12 12:23:13;;;;;;;48.70;20.27;;;;;;;15.21;100.00;101058.38;4993719;28;20093;-52
2023/10/12 12:25:39;;;;;;;33.78;18.40;;;;;;;15.48;100.00;101111.06;4995242;28;20038;-51
2023/10/12 12:28:14;;;;;;;56.45;21.05;;;;;;;15.51;100.00;101140.09;5026165;28;20054;-51
2023/10/12 12:30:46;;;;;;;35.58;15.00;;;;;;;15.41;100.00;101113.13;4994962;28;20042;-56
2023/10/12 12:33:15;;;;;;;40.60;12.18;;;;;;;15.36;100.00;101103.66;5025041;28;20089;-52
2023/10/12 12:35:59;;;;;;;11.50;5.60;;;;;;;15.17;100.00;101069.22;4994004;28;20085;-58
2023/10/12 12:41:05;;;;;;;9.48;5.70;;;;;;;15.19;100.00;101078.81;5008412;28;20486;-58
2023/10/12 12:43:33;;;;;;;10.27;6.65;;;;;;;14.98;100.00;101028.59;4994805;28;20312;-53
2023/10/12 12:45:59;;;;;;;8.85;5.57;;;;;;;14.86;100.00;100994.72;5009534;28;20315;-55
2023/10/12 12:48:24;;;;;;;6.78;4.95;;;;;;;15.29;100.00;101049.22;4994483;28;20039;-56
2023/10/12 12:50:49;;;;;;;8.70;5.00;;;;;;;15.35;100.00;101049.78;4994590;28;20133;-56
2023/10/12 12:53:18;;;;;;;6.43;4.75;;;;;;;15.44;100.00;101035.22;4994656;28;20037;-57
2023/10/12 12:55:47;;;;;;;6.10;4.68;;;;;;;15.59;100.00;101040.63;4994425;28;20038;-55
2023/10/12 12:58:17;;;;;;;7.05;4.30;;;;;;;15.35;100.00;100986.13;4994315;28;20076;-56
2023/10/12 13:00:43;;;;;;;7.88;3.97;;;;;;;15.62;100.00;101027.22;4994412;28;20101;-55
2023/10/12 13:03:09;;;;;;;6.13;4.30;;;;;;;15.41;100.00;100977.00;4994378;28;20117;-57
2023/10/12 13:05:35;;;;;;;7.45;4.78;;;;;;;15.83;100.00;101056.25;4994343;28;20030;-58
2023/10/12 13:08:00;;;;;;;8.88;5.70;;;;;;;15.52;100.00;100985.31;4994380;28;20034;-58
2023/10/12 13:10:26;;;;;;;8.60;6.10;;;;;;;15.43;100.00;100960.06;4993004;28;20486;-54
2023/10/12 13:12:52;;;;;;;15.00;7.75;;;;;;;15.75;100.00;100977.03;4994093;28;20474;-57
2023/10/12 13:15:18;;;;;;;12.38;8.80;;;;;;;15.86;100.00;100992.41;4993134;28;20045;-57
2023/10/12 13:17:44;;;;;;;18.35;10.73;;;;;;;15.91;100.00;100985.91;4993816;28;20034;-57
2023/10/12 13:20:21;;;;;;;15.27;11.55;;;;;;;15.72;100.00;100940.03;4993966;28;20038;-58
2023/10/12 13:22:48;;;;;;;21.27;15.18;;;;;;;15.87;100.00;100946.34;4993914;28;20378;-57
2023/10/12 13:25:17;;;;;;;19.48;15.13;;;;;;;16.22;100.00;101009.06;4993783;28;20121;-54
2023/10/12 13:27:44;;;;;;;18.77;14.05;;;;;;;16.12;100.00;100990.09;4993929;28;20182;-57
2023/10/12 13:30:09;;;;;;;18.40;14.15;;;;;;;16.35;100.00;101028.72;4994109;28;20043;-57
2023/10/12 13:32:38;;;;;;;18.77;14.40;;;;;;;16.33;100.00;101002.25;4993932;28;20394;-56
2023/10/12 13:35:17;;;;;;;19.05;14.82;;;;;;;16.51;100.00;101020.81;4993865;28;20045;-54